Time;durP1;ratioP1;P1;durP2;ratioP2;P2;SDS_P1;SDS_P2;PMS_P1;PMS_P2;Temp;Humidity;BMP_temperature;BMP_pressure;BME280_temperature;BME280_humidity;BME280_pressure;Samples;Min_cycle;Max_cycle;Signal;HPM_P1;HPM_P2
2022/09/16 00:01:48;;;;;;;;;;;;;;;9.33;100.00;99799.00;5033294;28;19932;-82
2022/09/16 00:04:21;;;;;;;;;;;;;;;9.34;100.00;99800.63;5028015;28;19959;-83
2022/09/16 00:06:55;;;;;;;;;;;;;;;9.32;100.00;99790.06;5041862;28;19921;-83
2022/09/16 00:09:28;;;;;;;;;;;;;;;9.33;100.00;99804.44;5062582;28;19925;-83
2022/09/16 00:12:01;;;;;;;;;;;;;;;9.29;100.00;99798.78;5039857;28;19921;-87
2022/09/16 00:14:34;;;;;;;;;;;;;;;9.34;100.00;99798.72;5035029;28;19920;-83
2022/09/16 00:17:07;;;;;;;;;;;;;;;9.35;100.00;99805.75;5028798;28;19925;-85
2022/09/16 00:19:39;;;;;;;;;;;;;;;9.36;100.00;99812.81;5050915;28;19921;-84
2022/09/16 00:22:13;;;;;;;;;;;;;;;9.35;100.00;99808.47;5058480;28;19931;-86
2022/09/16 00:24:41;;;;;;;;;;;;;;;9.34;100.00;99814.22;5022364;28;20305;-85
2022/09/16 00:27:14;;;;;;;;;;;;;;;9.37;100.00;99821.75;5023094;28;20342;-85
2022/09/16 00:29:42;;;;;;;;;;;;;;;9.40;100.00;99815.72;5059481;28;19931;-83
2022/09/16 00:32:15;;;;;;;;;;;;;;;9.39;100.00;99816.84;5041660;28;19948;-83
2022/09/16 00:34:47;;;;;;;;;;;;;;;9.34;100.00;99808.78;5044570;28;19931;-83
2022/09/16 00:37:22;;;;;;;;;;;;;;;9.28;100.00;99805.31;5038921;28;20294;-83
2022/09/16 00:39:54;;;;;;;;;;;;;;;9.30;100.00;99805.03;5041521;28;20381;-84
2022/09/16 00:42:27;;;;;;;;;;;;;;;9.30;100.00;99807.75;5045991;28;19925;-87
2022/09/16 00:45:03;;;;;;;;;;;;;;;9.28;100.00;99805.31;5026137;28;20396;-82
2022/09/16 00:47:40;;;;;;;;;;;;;;;9.26;100.00;99796.66;5026774;28;19921;-82
2022/09/16 00:50:16;;;;;;;;;;;;;;;9.23;100.00;99797.25;5043971;28;19921;-83
2022/09/16 00:52:52;;;;;;;;;;;;;;;9.24;100.00;99800.75;5027058;28;19925;-86
2022/09/16 00:55:23;;;;;;;;;;;;;;;9.23;100.00;99805.38;5072857;28;19921;-86
2022/09/16 00:57:59;;;;;;;;;;;;;;;9.24;100.00;99803.47;5021460;28;20297;-83
2022/09/16 01:00:32;;;;;;;;;;;;;;;9.23;100.00;99807.31;5029746;28;20408;-82
2022/09/16 01:03:05;;;;;;;;;;;;;;;9.20;100.00;99803.25;5048120;28;19928;-86
2022/09/16 01:05:38;;;;;;;;;;;;;;;9.22;100.00;99805.69;5042765;28;19924;-83
2022/09/16 01:08:08;;;;;;;;;;;;;;;9.26;100.00;99809.44;5048810;28;20377;-83
2022/09/16 01:10:35;;;;;;;;;;;;;;;9.26;100.00;99799.38;5029422;28;20421;-82
2022/09/16 01:13:10;;;;;;;;;;;;;;;9.27;100.00;99794.75;5028432;28;19928;-82
2022/09/16 01:15:46;;;;;;;;;;;;;;;9.31;100.00;99803.94;5033597;28;19932;-83
2022/09/16 01:18:24;;;;;;;;;;;;;;;9.34;100.00;99816.91;5071896;28;19929;-84
2022/09/16 01:21:01;;;;;;;;;;;;;;;9.39;100.00;99822.28;5031855;28;19931;-86
2022/09/16 01:23:57;;;;;;;;;;;;;;;9.44;100.00;99826.84;5030263;28;20295;-88
2022/09/16 01:26:43;;;;;;;;;;;;;;;9.45;100.00;99820.31;5029539;28;19932;-83
2022/09/16 01:29:36;;;;;;;;;;;;;;;9.45;100.00;99814.88;5045083;28;19950;-82
2022/09/16 01:32:14;;;;;;;;;;;;;;;9.47;100.00;99816.19;5027003;28;19925;-85
2022/09/16 01:34:50;;;;;;;;;;;;;;;9.48;100.00;99812.34;5048381;28;19928;-86
2022/09/16 01:37:24;;;;;;;;;;;;;;;9.49;100.00;99813.97;5034523;28;19925;-87
2022/09/16 01:39:59;;;;;;;;;;;;;;;9.55;100.00;99816.63;5030274;28;20488;-87
2022/09/16 01:42:30;;;;;;;;;;;;;;;9.54;100.00;99815.81;5029457;28;19921;-86
2022/09/16 01:45:06;;;;;;;;;;;;;;;9.46;100.00;99811.88;5044943;28;19928;-85
2022/09/16 01:47:44;;;;;;;;;;;;;;;9.44;100.00;99803.19;5070127;28;19932;-85
2022/09/16 01:50:17;;;;;;;;;;;;;;;9.38;100.00;99804.38;5043939;28;19921;-85
2022/09/16 01:52:48;;;;;;;;;;;;;;;9.42;100.00;99805.41;5033738;28;19920;-86
2022/09/16 01:55:25;;;;;;;;;;;;;;;9.39;100.00;99803.28;5046724;28;20293;-85
2022/09/16 01:57:54;;;;;;;;;;;;;;;9.44;100.00;99808.63;5038165;28;19925;-85
2022/09/16 02:00:22;;;;;;;;;;;;;;;9.49;100.00;99794.97;5027316;28;20409;-85
2022/09/16 02:02:59;;;;;;;;;;;;;;;9.51;100.00;99783.81;5033639;28;19928;-85
2022/09/16 02:05:34;;;;;;;;;;;;;;;9.47;100.00;99788.22;5038323;28;20297;-83
2022/09/16 02:08:08;;;;;;;;;;;;;;;9.45;100.00;99787.72;5028978;28;20378;-85
2022/09/16 02:10:43;;;;;;;;;;;;;;;9.42;100.00;99786.38;5045435;28;19932;-85
2022/09/16 02:13:18;;;;;;;;;;;;;;;9.38;100.00;99788.09;5070214;28;19943;-84
2022/09/16 02:15:52;;;;;;;;;;;;;;;9.39;100.00;99789.69;5062607;28;19925;-84
2022/09/16 02:18:29;;;;;;;;;;;;;;;9.30;100.00;99786.81;5038266;28;19922;-85
2022/09/16 02:21:04;;;;;;;;;;;;;;;9.30;100.00;99789.53;5032805;28;19932;-84
2022/09/16 02:23:34;;;;;;;;;;;;;;;9.22;100.00;99786.69;5067116;28;19924;-85
2022/09/16 02:26:05;;;;;;;;;;;;;;;9.21;100.00;99785.88;5027530;28;19922;-84
2022/09/16 02:28:41;;;;;;;;;;;;;;;9.18;100.00;99781.84;5035066;28;19921;-84
2022/09/16 02:31:15;;;;;;;;;;;;;;;9.14;100.00;99783.53;5024871;28;19926;-84
2022/09/16 02:33:47;;;;;;;;;;;;;;;9.09;100.00;99778.16;5072574;28;20285;-83
2022/09/16 02:36:17;;;;;;;;;;;;;;;9.12;100.00;99784.91;5033877;28;19948;-83
2022/09/16 02:38:47;;;;;;;;;;;;;;;9.11;100.00;99772.44;5057010;28;19928;-84
2022/09/16 02:41:20;;;;;;;;;;;;;;;9.09;100.00;99774.66;5045308;28;19932;-86
2022/09/16 02:43:48;;;;;;;;;;;;;;;9.09;100.00;99775.44;5058636;28;19925;-84
2022/09/16 02:46:22;;;;;;;;;;;;;;;9.09;100.00;99778.16;5035664;28;19925;-84
2022/09/16 02:48:59;;;;;;;;;;;;;;;9.05;100.00;99776.31;5076818;28;20396;-84
2022/09/16 02:51:31;;;;;;;;;;;;;;;9.03;100.00;99773.88;5027490;28;19925;-83
2022/09/16 02:54:09;;;;;;;;;;;;;;;9.04;100.00;99775.50;5062165;28;19920;-83
2022/09/16 02:56:38;;;;;;;;;;;;;;;9.07;100.00;99766.78;5031668;28;20373;-82
2022/09/16 02:59:07;;;;;;;;;;;;;;;9.07;100.00;99769.47;5022922;28;19959;-83
2022/09/16 03:01:42;;;;;;;;;;;;;;;9.11;100.00;99781.38;5041377;28;19920;-82
2022/09/16 03:04:13;;;;;;;;;;;;;;;9.19;100.00;99786.16;5029869;28;20271;-82
2022/09/16 03:06:46;;;;;;;;;;;;;;;9.12;100.00;99771.34;5022066;28;19928;-85
2022/09/16 03:09:22;;;;;;;;;;;;;;;9.18;100.00;99768.28;5062262;28;19926;-83
2022/09/16 03:12:05;;;;;;;;;;;;;;;9.21;100.00;99757.91;5026455;28;20008;-85
2022/09/16 03:14:54;;;;;;;;;;;;;;;9.20;100.00;99754.41;5021563;28;19921;-87
2022/09/16 03:17:33;;;;;;;;;;;;;;;9.15;100.00;99768.03;5064602;28;19932;-81
2022/09/16 03:20:12;;;;;;;;;;;;;;;9.10;100.00;99768.09;5063954;28;20292;-82
2022/09/16 03:22:47;;;;;;;;;;;;;;;9.10;100.00;99754.53;5031429;28;19932;-83
2022/09/16 03:25:22;;;;;;;;;;;;;;;9.12;100.00;99758.56;5031326;28;20084;-83
2022/09/16 03:27:58;;;;;;;;;;;;;;;9.07;100.00;99750.47;5027747;28;19921;-85
2022/09/16 03:30:26;;;;;;;;;;;;;;;9.05;100.00;99752.69;5070924;28;19921;-84
2022/09/16 03:32:56;;;;;;;;;;;;;;;9.06;100.00;99754.31;5032212;28;19921;-81
2022/09/16 03:35:32;;;;;;;;;;;;;;;9.00;100.00;99753.59;5072928;28;19925;-84
2022/09/16 03:38:07;;;;;;;;;;;;;;;9.02;100.00;99759.50;5056748;28;19928;-82
2022/09/16 03:40:36;;;;;;;;;;;;;;;9.05;100.00;99751.91;5021260;28;19928;-84
2022/09/16 03:43:09;;;;;;;;;;;;;;;8.98;100.00;99747.63;5046463;28;19925;-83
2022/09/16 03:45:42;;;;;;;;;;;;;;;9.06;100.00;99775.22;5021188;28;19936;-83
2022/09/16 03:48:15;;;;;;;;;;;;;;;9.08;100.00;99770.31;5030664;28;19921;-83
2022/09/16 03:50:45;;;;;;;;;;;;;;;9.05;100.00;99760.84;5057695;28;19925;-84
2022/09/16 03:53:18;;;;;;;;;;;;;;;9.06;100.00;99754.31;5042975;28;19932;-84
2022/09/16 03:55:48;;;;;;;;;;;;;;;9.12;100.00;99747.72;5020222;28;19928;-85
2022/09/16 03:58:20;;;;;;;;;;;;;;;9.09;100.00;99740.16;5028854;28;20400;-85
2022/09/16 04:00:53;;;;;;;;;;;;;;;9.06;100.00;99748.91;5029551;28;19921;-84
2022/09/16 04:03:26;;;;;;;;;;;;;;;9.07;100.00;99753.19;5033846;28;19943;-83
2022/09/16 04:05:56;;;;;;;;;;;;;;;9.01;100.00;99747.03;5042338;28;19932;-83
2022/09/16 04:08:29;;;;;;;;;;;;;;;8.95;100.00;99745.50;5036858;28;19924;-86
2022/09/16 04:10:58;;;;;;;;;;;;;;;8.92;100.00;99745.28;5076970;28;19921;-85
2022/09/16 04:13:32;;;;;;;;;;;;;;;8.89;100.00;99743.94;5033707;28;19920;-84
2022/09/16 04:16:00;;;;;;;;;;;;;;;8.86;100.00;99744.53;5020377;28;20139;-86
2022/09/16 04:18:29;;;;;;;;;;;;;;;8.84;100.00;99746.75;5064120;28;20300;-86
2022/09/16 04:20:59;;;;;;;;;;;;;;;8.87;100.00;99753.50;5037359;28;20289;-85
2022/09/16 04:23:32;;;;;;;;;;;;;;;8.79;100.00;99754.94;5028134;28;20235;-84
2022/09/16 04:26:01;;;;;;;;;;;;;;;8.87;100.00;99750.78;5029914;28;20401;-85
2022/09/16 04:28:30;;;;;;;;;;;;;;;8.90;100.00;99771.91;5033954;28;19929;-86
2022/09/16 04:30:59;;;;;;;;;;;;;;;8.92;100.00;99762.38;5035754;28;19932;-83
2022/09/16 04:33:27;;;;;;;;;;;;;;;8.94;100.00;99753.94;5020962;28;19928;-86
2022/09/16 04:36:03;;;;;;;;;;;;;;;8.94;100.00;99754.72;5029360;28;20294;-85
2022/09/16 04:38:36;;;;;;;;;;;;;;;9.06;100.00;99769.78;5042036;28;19921;-87
2022/09/16 04:41:10;;;;;;;;;;;;;;;8.94;100.00;99752.03;5035379;28;19932;-86
2022/09/16 04:43:38;;;;;;;;;;;;;;;8.95;100.00;99750.94;5041310;28;19925;-83
2022/09/16 04:46:12;;;;;;;;;;;;;;;8.91;100.00;99746.34;5061690;28;19929;-82
2022/09/16 04:48:46;;;;;;;;;;;;;;;8.91;100.00;99747.19;5064200;28;20404;-81
2022/09/16 04:51:16;;;;;;;;;;;;;;;8.92;100.00;99743.38;5033674;28;19936;-82
2022/09/16 04:53:49;;;;;;;;;;;;;;;8.84;100.00;99733.97;5029724;28;19926;-85
2022/09/16 04:56:23;;;;;;;;;;;;;;;8.84;100.00;99736.69;5051823;28;19944;-86
2022/09/16 04:58:59;;;;;;;;;;;;;;;8.76;100.00;99733.81;5066221;28;19925;-84
2022/09/16 05:01:27;;;;;;;;;;;;;;;8.73;100.00;99732.50;5034936;28;20304;-84
2022/09/16 05:03:57;;;;;;;;;;;;;;;8.75;100.00;99734.91;5039854;28;19921;-85
2022/09/16 05:06:32;;;;;;;;;;;;;;;8.71;100.00;99729.25;5053020;28;19921;-84
2022/09/16 05:09:01;;;;;;;;;;;;;;;8.74;100.00;99731.41;5064953;28;19921;-85
2022/09/16 05:11:30;;;;;;;;;;;;;;;8.69;100.00;99736.88;5036092;28;19928;-86
2022/09/16 05:13:58;;;;;;;;;;;;;;;8.70;100.00;99735.78;5034235;28;20365;-84
2022/09/16 05:16:27;;;;;;;;;;;;;;;8.70;100.00;99734.97;5035086;28;20389;-85
2022/09/16 05:18:57;;;;;;;;;;;;;;;8.70;100.00;99729.53;5067630;28;19928;-83
2022/09/16 05:21:30;;;;;;;;;;;;;;;8.68;100.00;99725.22;5035849;28;20318;-85
2022/09/16 05:24:01;;;;;;;;;;;;;;;8.67;100.00;99739.88;5067579;28;20378;-86
2022/09/16 05:26:30;;;;;;;;;;;;;;;8.72;100.00;99736.31;5067283;28;19921;-85
2022/09/16 05:28:59;;;;;;;;;;;;;;;8.75;100.00;99729.50;5067179;28;19936;-85
2022/09/16 05:31:34;;;;;;;;;;;;;;;8.83;100.00;99726.94;5066927;28;19921;-84
2022/09/16 05:34:02;;;;;;;;;;;;;;;8.90;100.00;99737.44;5050617;28;19928;-84
2022/09/16 05:36:32;;;;;;;;;;;;;;;8.92;100.00;99732.53;5034353;28;20200;-86
2022/09/16 05:39:06;;;;;;;;;;;;;;;8.97;100.00;99728.94;5033496;28;19932;-84
2022/09/16 05:41:39;;;;;;;;;;;;;;;9.09;100.00;99728.50;5034216;28;19932;-85
2022/09/16 05:44:07;;;;;;;;;;;;;;;9.08;100.00;99726.88;5066747;28;19928;-83
2022/09/16 05:46:35;;;;;;;;;;;;;;;9.18;100.00;99721.28;5035020;28;19925;-85
2022/09/16 05:49:03;;;;;;;;;;;;;;;9.37;100.00;99732.16;5033626;28;20561;-87
2022/09/16 05:51:31;;;;;;;;;;;;;;;9.43;100.00;99724.72;5033653;28;20306;-85
2022/09/16 05:53:59;;;;;;;;;;;;;;;9.55;100.00;99732.44;5033435;28;19924;-86
2022/09/16 05:56:33;;;;;;;;;;;;;;;9.39;100.00;99737.28;5033267;28;19928;-85
2022/09/16 05:59:06;;;;;;;;;;;;;;;9.39;100.00;99727.25;5034256;28;19921;-86
2022/09/16 06:01:35;;;;;;;;;;;;;;;9.30;100.00;99724.38;5033442;28;19928;-86
2022/09/16 06:04:04;;;;;;;;;;;;;;;9.30;100.00;99721.66;5033939;28;20510;-85
2022/09/16 06:06:38;;;;;;;;;;;;;;;9.32;100.00;99726.78;5033176;28;19921;-85
2022/09/16 06:09:12;;;;;;;;;;;;;;;9.32;100.00;99727.63;5065885;28;19921;-85
2022/09/16 06:11:42;;;;;;;;;;;;;;;9.29;100.00;99720.03;5034111;28;19932;-83
2022/09/16 06:14:11;;;;;;;;;;;;;;;9.25;100.00;99720.94;5066179;28;20010;-85
2022/09/16 06:16:43;;;;;;;;;;;;;;;9.17;100.00;99725.13;5033528;28;19932;-83
2022/09/16 06:19:17;;;;;;;;;;;;;;;9.19;100.00;99714.78;5046581;28;20381;-85
2022/09/16 06:21:50;;;;;;;;;;;;;;;9.28;100.00;99717.63;5032676;28;19924;-85
2022/09/16 06:24:19;;;;;;;;;;;;;;;9.35;100.00;99710.72;5057941;28;19928;-87
2022/09/16 06:26:53;;;;;;;;;;;;;;;9.51;100.00;99699.63;5006632;28;19936;-84
2022/09/16 06:29:26;;;;;;;;;;;;;;;9.44;100.00;99705.41;5012681;28;19925;-83
2022/09/16 06:31:59;;;;;;;;;;;;;;;9.51;100.00;99710.47;5039310;28;19929;-85
2022/09/16 06:34:32;;;;;;;;;;;;;;;9.49;100.00;99702.63;5010241;28;19929;-84
2022/09/16 06:36:59;;;;;;;;;;;;;;;9.58;100.00;99708.19;5018074;28;19936;-84
2022/09/16 06:39:44;;;;;;;;;;;;;;;9.65;100.00;99705.09;5006363;28;19920;-84
2022/09/16 06:42:13;;;;;;;;;;;;;;;9.65;100.00;99707.81;5015540;28;19933;-82
2022/09/16 06:44:41;;;;;;;;;;;;;;;9.73;100.00;99692.75;5008279;28;19929;-83
2022/09/16 06:47:14;;;;;;;;;;;;;;;9.87;100.00;99701.72;5003280;28;19929;-84
2022/09/16 06:49:46;;;;;;;;;;;;;;;9.90;100.00;99700.31;5010259;28;19956;-84
2022/09/16 06:52:19;;;;;;;;;;;;;;;9.95;100.00;99695.59;5004069;28;20256;-84
2022/09/16 06:54:52;;;;;;;;;;;;;;;9.93;100.00;99702.44;5015789;28;19921;-84
2022/09/16 06:57:26;;;;;;;;;;;;;;;10.04;100.00;99701.16;5044088;28;19952;-85
2022/09/16 06:59:54;;;;;;;;;;;;;;;10.03;100.00;99702.25;5005369;28;19936;-84
2022/09/16 07:02:22;;;;;;;;;;;;;;;10.11;100.00;99698.84;5005278;28;19936;-85
2022/09/16 07:04:50;;;;;;;;;;;;;;;10.19;100.00;99700.88;5011322;28;19929;-83
2022/09/16 07:07:23;;;;;;;;;;;;;;;10.29;100.00;99693.59;5023178;28;19939;-82
2022/09/16 07:09:56;;;;;;;;;;;;;;;10.23;100.00;99692.91;5014749;28;19936;-83
2022/09/16 07:12:23;;;;;;;;;;;;;;;10.35;100.00;99689.72;5032678;28;19936;-83
2022/09/16 07:14:53;;;;;;;;;;;;;;;10.23;100.00;99703.78;5030426;28;19929;-80
2022/09/16 07:17:26;;;;;;;;;;;;;;;10.25;100.00;99700.75;5014745;28;19921;-85
2022/09/16 07:19:59;;;;;;;;;;;;;;;10.33;100.00;99695.44;5020285;28;19924;-84
2022/09/16 07:22:32;;;;;;;;;;;;;;;10.38;100.00;99705.44;5022947;28;20520;-85
2022/09/16 07:25:16;;;;;;;;;;;;;;;10.39;100.00;99696.16;5035858;28;20313;-82
2022/09/16 07:27:59;;;;;;;;;;;;;;;10.51;100.00;99699.19;5021810;28;19951;-84
2022/09/16 07:30:29;;;;;;;;;;;;;;;10.58;100.00;99687.06;5027484;28;19936;-83
2022/09/16 07:33:00;;;;;;;;;;;;;;;10.52;100.00;99694.53;5026818;28;19925;-82
2022/09/16 07:35:34;;;;;;;;;;;;;;;10.60;100.00;99695.75;5057667;28;19925;-85
2022/09/16 07:38:07;;;;;;;;;;;;;;;10.67;100.00;99698.84;5038067;28;20314;-83
2022/09/16 07:40:39;;;;;;;;;;;;;;;10.79;100.00;99711.97;5006804;28;19929;-84
2022/09/16 07:43:12;;;;;;;;;;;;;;;10.87;100.00;99701.16;5019486;28;20290;-85
2022/09/16 07:45:41;;;;;;;;;;;;;;;10.96;100.00;99711.31;5042617;28;19925;-84
2022/09/16 07:48:14;;;;;;;;;;;;;;;11.03;100.00;99703.53;5037280;28;19924;-83
2022/09/16 07:50:53;;;;;;;;;;;;;;;10.86;100.00;99704.19;5008036;28;20373;-84
2022/09/16 07:53:28;;;;;;;;;;;;;;;10.89;100.00;99706.28;5042350;28;19987;-86
2022/09/16 07:55:56;;;;;;;;;;;;;;;11.02;100.00;99708.16;5039696;28;20987;-85
2022/09/16 07:58:29;;;;;;;;;;;;;;;11.11;100.00;99713.69;5002407;28;19929;-86
2022/09/16 08:01:04;;;;;;;;;;;;;;;11.26;100.00;99717.19;5024510;28;21072;-85
2022/09/16 08:03:37;;;;;;;;;;;;;;;11.49;100.00;99717.97;5007316;28;19929;-87
2022/09/16 08:06:07;;;;;;;;;;;;;;;11.44;100.00;99718.13;5036602;28;20617;-87
2022/09/16 08:08:40;;;;;;;;;;;;;;;11.59;100.00;99712.31;5009392;28;19929;-84
2022/09/16 08:11:14;;;;;;;;;;;;;;;11.33;100.00;99712.09;5023500;28;20313;-85
2022/09/16 08:13:47;;;;;;;;;;;;;;;11.45;100.00;99704.19;5041057;28;19936;-85
2022/09/16 08:16:22;;;;;;;;;;;;;;;11.46;100.00;99702.25;5004346;28;19929;-85
2022/09/16 08:18:51;;;;;;;;;;;;;;;11.40;100.00;99712.47;5034764;28;19936;-86
2022/09/16 08:21:20;;;;;;;;;;;;;;;11.53;100.00;99711.63;5035338;28;19929;-85
2022/09/16 08:23:53;;;;;;;;;;;;;;;11.61;100.00;99725.63;5008419;28;19921;-89
2022/09/16 08:26:22;;;;;;;;;;;;;;;11.66;100.00;99714.59;5007154;28;20014;-85
2022/09/16 08:28:54;;;;;;;;;;;;;;;11.76;100.00;99708.06;5006936;28;19967;-85
2022/09/16 08:31:29;;;;;;;;;;;;;;;11.77;100.00;99715.16;5010120;28;19929;-86
2022/09/16 08:33:56;;;;;;;;;;;;;;;11.77;100.00;99713.22;5041905;28;19929;-85
2022/09/16 08:36:32;;;;;;;;;;;;;;;11.83;100.00;99709.22;5009631;28;19956;-86
2022/09/16 08:39:04;;;;;;;;;;;;;;;11.86;100.00;99711.34;5006345;28;19929;-87
2022/09/16 08:41:39;;;;;;;;;;;;;;;11.89;100.00;99715.34;5008206;28;19928;-85
2022/09/16 08:44:16;;;;;;;;;;;;;;;11.95;100.00;99713.34;5025454;28;19925;-88
2022/09/16 08:46:50;;;;;;;;;;;;;;;12.02;100.00;99714.50;5020821;28;20390;-87
2022/09/16 08:49:21;;;;;;;;;;;;;;;12.16;100.00;99714.41;5003473;28;19929;-86
2022/09/16 08:51:54;;;;;;;;;;;;;;;12.18;100.00;99714.09;5012783;28;19929;-84
2022/09/16 08:54:26;;;;;;;;;;;;;;;12.36;100.00;99704.88;5004946;28;20171;-88
2022/09/16 08:57:00;;;;;;;;;;;;;;;12.47;100.00;99708.13;5002460;28;19929;-85
2022/09/16 08:59:36;;;;;;;;;;;;;;;12.37;100.00;99716.56;5036384;28;19936;-83
2022/09/16 09:02:23;;;;;;;;;;;;;;;12.40;100.00;99702.28;5009512;28;19929;-82
2022/09/16 09:04:51;;;;;;;;;;;;;;;12.68;100.00;99719.25;5008900;28;19936;-82
2022/09/16 09:07:25;;;;;;;;;;;;;;;12.85;100.00;99720.41;5008349;28;19936;-85
2022/09/16 09:10:00;;;;;;;;;;;;;;;12.74;100.00;99714.44;5002143;28;19929;-85
2022/09/16 09:12:32;;;;;;;;;;;;;;;12.52;100.00;99723.53;5031326;28;21260;-85
2022/09/16 09:15:13;;;;;;;;;;;;;;;12.48;100.00;99720.63;5004639;28;20381;-86
2022/09/16 09:17:53;;;;;;;;;;;;;;;12.15;100.00;99718.28;5004373;28;20314;-84
2022/09/16 09:20:34;;;;;;;;;;;;;;;12.19;100.00;99732.06;5009616;28;20543;-88
2022/09/16 09:23:13;;;;;;;;;;;;;;;12.37;100.00;99727.50;5012694;28;20285;-85
2022/09/16 09:25:46;;;;;;;;;;;;;;;12.32;100.00;99727.63;5007996;28;21086;-88
2022/09/16 09:28:23;;;;;;;;;;;;;;;12.32;100.00;99730.34;5005980;28;20290;-83
2022/09/16 09:30:54;;;;;;;;;;;;;;;12.24;100.00;99726.47;5041702;28;19925;-86
2022/09/16 09:33:47;;;;;;;;;;;;;;;12.42;100.00;99719.97;5010976;28;19944;-86
2022/09/16 09:36:33;;;;;;;;;;;;;;;12.54;100.00;99713.91;5036400;28;20306;-85
2022/09/16 09:39:19;;;;;;;;;;;;;;;12.46;100.00;99711.97;5000001;28;19936;-89
2022/09/16 09:41:49;;;;;;;;;;;;;;;12.70;100.00;99711.53;5047518;28;19925;-88
2022/09/16 09:44:34;;;;;;;;;;;;;;;12.71;100.00;99704.16;5009131;28;19951;-85
2022/09/16 09:47:05;;;;;;;;;;;;;;;12.72;100.00;99708.50;5013875;28;19928;-86
2022/09/16 09:49:37;;;;;;;;;;;;;;;12.90;100.00;99707.41;5015614;28;19929;-88
2022/09/16 09:52:07;;;;;;;;;;;;;;;13.14;100.00;99705.34;5022014;28;20187;-86
2022/09/16 09:54:36;;;;;;;;;;;;;;;13.16;100.00;99697.59;5009149;28;20948;-87
2022/09/16 09:57:12;;;;;;;;;;;;;;;13.12;100.00;99689.28;5032784;28;19929;-87
2022/09/16 09:59:43;;;;;;;;;;;;;;;12.97;100.00;99685.09;5013200;28;19928;-86
2022/09/16 10:02:14;;;;;;;;;;;;;;;12.97;100.00;99681.53;5005335;28;19937;-86
2022/09/16 10:04:48;;;;;;;;;;;;;;;13.08;100.00;99678.16;5005136;28;19929;-86
2022/09/16 10:07:17;;;;;;;;;;;;;;;13.02;100.00;99682.19;5023046;28;19925;-88
2022/09/16 10:09:53;;;;;;;;;;;;;;;13.08;100.00;99677.38;5003461;28;20014;-85
2022/09/16 10:12:27;;;;;;;;;;;;;;;13.09;100.00;99692.63;5005601;28;20160;-85
2022/09/16 10:14:55;;;;;;;;;;;;;;;13.12;100.00;99683.81;5009110;28;19929;-86
2022/09/16 10:17:25;;;;;;;;;;;;;;;13.25;100.00;99682.03;5012958;28;19936;-84
2022/09/16 10:19:56;;;;;;;;;;;;;;;13.18;100.00;99681.72;5011159;28;19925;-86
2022/09/16 10:22:26;;;;;;;;;;;;;;;13.25;100.00;99682.81;5043197;28;19928;-86
2022/09/16 10:24:55;;;;;;;;;;;;;;;13.10;100.00;99681.41;5024406;28;19929;-86
2022/09/16 10:27:25;;;;;;;;;;;;;;;13.18;100.00;99674.31;5006124;28;20273;-84
2022/09/16 10:30:04;;;;;;;;;;;;;;;13.18;100.00;99666.13;5015321;28;20373;-85
2022/09/16 10:32:45;;;;;;;;;;;;;;;13.37;100.00;99674.00;5009906;28;19932;-84
2022/09/16 10:35:21;;;;;;;;;;;;;;;13.24;100.00;99667.56;5008262;28;19929;-87
2022/09/16 10:37:51;;;;;;;;;;;;;;;13.13;100.00;99668.22;5006716;28;20329;-86
2022/09/16 10:40:25;;;;;;;;;;;;;;;13.38;100.00;99659.22;5004169;28;19929;-85
2022/09/16 10:43:02;;;;;;;;;;;;;;;13.67;100.00;99657.72;5012292;28;19928;-87
2022/09/16 10:45:35;;;;;;;;;;;;;;;13.83;100.00;99654.47;5014366;28;20301;-86
2022/09/16 10:48:12;;;;;;;;;;;;;;;14.10;100.00;99658.72;5039114;28;19925;-89
2022/09/16 10:50:53;;;;;;;;;;;;;;;14.12;100.00;99662.69;5017503;28;19936;-89
2022/09/16 10:53:23;;;;;;;;;;;;;;;14.10;100.00;99658.72;5037227;28;19936;-84
2022/09/16 10:55:56;;;;;;;;;;;;;;;14.00;100.00;99627.03;5023226;28;19929;-87
2022/09/16 10:58:37;;;;;;;;;;;;;;;14.21;100.00;99640.78;5018980;28;19931;-86
2022/09/16 11:01:19;;;;;;;;;;;;;;;14.32;100.00;99641.22;5040811;28;20597;-86
2022/09/16 11:04:12;;;;;;;;;;;;;;;14.00;100.00;99659.84;5012706;28;19925;-85
2022/09/16 11:06:49;;;;;;;;;;;;;;;13.90;100.00;99644.59;5012742;28;19929;-86
2022/09/16 11:09:29;;;;;;;;;;;;;;;13.88;100.00;99633.22;5053273;28;19937;-84
2022/09/16 11:12:13;;;;;;;;;;;;;;;13.98;100.00;99634.78;5025133;28;19929;-84
2022/09/16 11:14:44;;;;;;;;;;;;;;;14.12;100.00;99635.34;5005617;28;19944;-85
2022/09/16 11:17:25;;;;;;;;;;;;;;;14.28;100.00;99632.06;5007081;28;19936;-85
2022/09/16 11:20:04;;;;;;;;;;;;;;;14.37;100.00;99619.13;5016904;28;19936;-87
2022/09/16 11:22:40;;;;;;;;;;;;;;;13.95;100.00;99638.97;5042269;28;19929;-87
2022/09/16 11:25:20;;;;;;;;;;;;;;;14.08;100.00;99628.91;5015203;28;19952;-87
2022/09/16 11:27:58;;;;;;;;;;;;;;;14.38;100.00;99628.94;5052442;28;19925;-85
2022/09/16 11:30:29;;;;;;;;;;;;;;;14.22;100.00;99625.16;5041443;28;19925;-84
2022/09/16 11:33:06;;;;;;;;;;;;;;;14.12;100.00;99623.59;5019004;28;19925;-84
2022/09/16 11:35:55;;;;;;;;;;;;;;;14.34;100.00;99624.47;5027258;28;20200;-87
2022/09/16 11:38:37;;;;;;;;;;;;;;;14.57;100.00;99630.41;5047211;28;20244;-87
2022/09/16 11:41:10;;;;;;;;;;;;;;;14.70;100.00;99612.19;5017441;28;19929;-85
2022/09/16 11:43:51;;;;;;;;;;;;;;;14.78;100.00;99620.31;5009647;28;19988;-86
2022/09/16 11:46:22;;;;;;;;;;;;;;;14.93;100.00;99613.44;5038006;28;19943;-87
2022/09/16 11:49:04;;;;;;;;;;;;;;;14.87;100.00;99609.28;5009850;28;20386;-86
2022/09/16 11:51:46;;;;;;;;;;;;;;;14.92;100.00;99614.56;5009775;28;19929;-84
2022/09/16 11:54:32;;;;;;;;;;;;;;;14.43;100.00;99626.00;5008141;28;19929;-87
2022/09/16 11:57:08;;;;;;;;;;;;;;;13.95;100.00;99630.75;5012524;28;20178;-87
2022/09/16 11:59:45;;;;;;;;;;;;;;;13.25;100.00;99641.03;5009502;28;20721;-84
2022/09/16 12:02:23;;;;;;;;;;;;;;;13.20;100.00;99643.94;5014875;28;20293;-85
2022/09/16 12:04:58;;;;;;;;;;;;;;;13.20;100.00;99622.91;5008881;28;19925;-87
2022/09/16 12:07:34;;;;;;;;;;;;;;;13.27;100.00;99630.59;5014315;28;19921;-86
2022/09/16 12:10:13;;;;;;;;;;;;;;;13.06;100.00;99628.53;5018167;28;19925;-84
2022/09/16 12:12:49;;;;;;;;;;;;;;;13.16;100.00;99623.84;5019592;28;19929;-86
2022/09/16 12:15:25;;;;;;;;;;;;;;;13.09;100.00;99610.69;5019201;28;19933;-86
2022/09/16 12:18:01;;;;;;;;;;;;;;;12.84;100.00;99613.13;5044801;28;19934;-87
2022/09/16 12:20:30;;;;;;;;;;;;;;;12.85;100.00;99616.66;5023620;28;19929;-87
2022/09/16 12:23:02;;;;;;;;;;;;;;;13.18;100.00;99595.09;5032422;28;19928;-84
2022/09/16 12:25:36;;;;;;;;;;;;;;;13.51;100.00;99607.44;5025265;28;20699;-85
2022/09/16 12:28:10;;;;;;;;;;;;;;;13.70;100.00;99607.03;5021372;28;19925;-85
2022/09/16 12:30:45;;;;;;;;;;;;;;;13.70;100.00;99601.56;5012259;28;20305;-85
2022/09/16 12:33:22;;;;;;;;;;;;;;;13.82;100.00;99596.22;5000340;28;19925;-86
2022/09/16 12:35:56;;;;;;;;;;;;;;;13.75;100.00;99588.53;4999786;28;19968;-84
2022/09/16 12:38:29;;;;;;;;;;;;;;;13.91;100.00;99577.84;5020138;28;19936;-85
2022/09/16 12:41:07;;;;;;;;;;;;;;;14.06;100.00;99559.28;5004602;28;19936;-86
2022/09/16 12:43:43;;;;;;;;;;;;;;;14.20;100.00;99570.78;5012200;28;19936;-83
2022/09/16 12:46:21;;;;;;;;;;;;;;;14.47;100.00;99560.44;5009941;28;19952;-85
2022/09/16 12:48:58;;;;;;;;;;;;;;;14.57;100.00;99546.38;5007541;28;20143;-85
2022/09/16 12:51:36;;;;;;;;;;;;;;;14.62;100.00;99550.81;5009634;28;19937;-85
2022/09/16 12:54:22;;;;;;;;;;;;;;;14.43;100.00;99549.38;5022035;28;19940;-86
2022/09/16 12:57:08;;;;;;;;;;;;;;;14.22;100.00;99567.69;5004007;28;19925;-86
2022/09/16 12:59:50;;;;;;;;;;;;;;;13.95;100.00;99564.31;5006419;28;19929;-85
2022/09/16 13:02:26;;;;;;;;;;;;;;;13.71;100.00;99598.53;5004668;28;20317;-87
2022/09/16 13:04:58;;;;;;;;;;;;;;;12.56;100.00;99607.16;5040495;28;19936;-85
2022/09/16 13:07:34;;;;;;;;;;;;;;;12.04;100.00;99611.38;5009416;28;19936;-85
2022/09/16 13:10:16;;;;;;;;;;;;;;;11.62;100.00;99601.88;5005245;28;20362;-87
2022/09/16 13:12:51;;;;;;;;;;;;;;;11.55;100.00;99597.66;5041521;28;19936;-87
2022/09/16 13:15:23;;;;;;;;;;;;;;;11.50;100.00;99586.09;5009651;28;20259;-83
2022/09/16 13:17:52;;;;;;;;;;;;;;;11.55;100.00;99573.13;5039778;28;19936;-87